createdAt,value
2019-05-19T00:01:44.236Z,16.59
2019-05-19T00:04:11.711Z,16.59
2019-05-19T00:06:39.150Z,16.61
2019-05-19T00:09:06.756Z,16.50
2019-05-19T00:11:34.200Z,16.30
2019-05-19T00:14:01.947Z,16.28
2019-05-19T00:16:29.386Z,16.07
2019-05-19T00:18:56.772Z,16.13
2019-05-19T00:21:24.340Z,16.31
2019-05-19T00:23:51.778Z,16.30
2019-05-19T00:26:19.365Z,16.20
2019-05-19T00:28:46.798Z,16.27
2019-05-19T00:31:14.234Z,16.47
2019-05-19T00:33:41.772Z,16.59
2019-05-19T00:36:09.286Z,16.44
2019-05-19T00:38:36.693Z,16.25
2019-05-19T00:41:04.170Z,15.97
2019-05-19T00:43:31.750Z,15.75
2019-05-19T00:45:59.394Z,15.58
2019-05-19T00:48:26.833Z,15.46
2019-05-19T00:50:54.275Z,15.39
2019-05-19T00:53:21.744Z,15.39
2019-05-19T00:55:50.533Z,15.42
2019-05-19T00:58:18.618Z,15.33
2019-05-19T01:00:46.146Z,14.91
2019-05-19T01:03:13.562Z,15.18
2019-05-19T01:05:40.949Z,15.27
2019-05-19T01:08:08.411Z,15.41
2019-05-19T01:10:35.829Z,15.34
2019-05-19T01:13:03.280Z,15.24
2019-05-19T01:15:30.741Z,15.15
2019-05-19T01:17:58.086Z,15.09
2019-05-19T01:20:25.508Z,15.08
2019-05-19T01:22:52.938Z,15.16
2019-05-19T01:25:20.433Z,15.19
2019-05-19T01:27:47.816Z,15.13
2019-05-19T01:30:15.782Z,15.27
2019-05-19T01:32:43.201Z,15.35
2019-05-19T01:35:11.131Z,15.49
2019-05-19T01:37:38.599Z,15.57
2019-05-19T01:40:06.787Z,15.65
2019-05-19T01:42:34.187Z,15.67
2019-05-19T01:45:01.697Z,15.77
2019-05-19T01:47:30.140Z,15.78
2019-05-19T01:50:16.557Z,15.52
2019-05-19T01:52:26.987Z,15.32
2019-05-19T01:54:54.417Z,15.15
2019-05-19T01:57:21.856Z,15.22
2019-05-19T01:59:49.252Z,15.28
2019-05-19T02:02:17.698Z,15.43
2019-05-19T02:04:45.175Z,15.50
2019-05-19T02:07:12.542Z,15.59
2019-05-19T02:09:40.018Z,15.33
2019-05-19T02:12:07.457Z,15.41
2019-05-19T02:14:34.945Z,15.47
2019-05-19T02:17:02.439Z,15.38
2019-05-19T02:19:29.808Z,15.16
2019-05-19T02:21:57.258Z,15.22
2019-05-19T02:24:24.694Z,15.35
2019-05-19T02:26:52.122Z,15.16
2019-05-19T02:29:19.999Z,15.01
2019-05-19T02:31:47.456Z,15.10
2019-05-19T02:34:15.601Z,15.16
2019-05-19T02:36:43.111Z,15.23
2019-05-19T02:39:11.104Z,15.44
2019-05-19T02:41:41.434Z,15.50
2019-05-19T02:44:09.857Z,15.24
2019-05-19T02:46:38.976Z,15.05
2019-05-19T02:49:07.725Z,14.96
2019-05-19T02:51:37.023Z,14.84
2019-05-19T02:54:05.976Z,14.77
2019-05-19T02:56:33.941Z,14.84
2019-05-19T02:59:01.876Z,14.88
2019-05-19T03:01:29.575Z,14.94
2019-05-19T03:03:57.058Z,14.96
2019-05-19T03:06:24.554Z,15.09
2019-05-19T03:08:51.935Z,15.07
2019-05-19T03:11:19.426Z,15.19
2019-05-19T03:13:46.946Z,15.19
2019-05-19T03:16:14.321Z,15.17
2019-05-19T03:18:41.743Z,15.08
2019-05-19T03:21:11.610Z,14.99
2019-05-19T03:23:38.538Z,14.77
2019-05-19T03:26:05.993Z,14.70
2019-05-19T03:28:33.437Z,14.70
2019-05-19T03:31:11.615Z,14.72
2019-05-19T03:33:41.268Z,14.57
2019-05-19T03:36:09.604Z,14.53
2019-05-19T03:38:37.035Z,14.80
2019-05-19T03:41:04.479Z,14.86
2019-05-19T03:43:32.257Z,14.97
2019-05-19T03:45:59.672Z,15.03
2019-05-19T03:48:27.095Z,15.26
2019-05-19T03:50:54.526Z,15.33
2019-05-19T03:53:22.022Z,15.40
2019-05-19T03:55:49.483Z,15.41
2019-05-19T03:58:16.904Z,15.64
2019-05-19T04:00:44.363Z,15.72
2019-05-19T04:03:11.737Z,15.75
2019-05-19T04:05:39.226Z,15.89
2019-05-19T04:08:06.697Z,15.88
2019-05-19T04:10:34.996Z,16.06
2019-05-19T04:13:02.440Z,16.10
2019-05-19T04:15:29.898Z,16.26
2019-05-19T04:17:57.290Z,16.24
2019-05-19T04:20:24.721Z,16.29
2019-05-19T04:22:52.149Z,16.23
2019-05-19T04:25:19.693Z,16.55
2019-05-19T04:27:47.148Z,16.71
2019-05-19T04:30:15.192Z,16.93
2019-05-19T04:32:42.706Z,16.99
2019-05-19T04:35:10.303Z,17.31
2019-05-19T04:37:37.916Z,17.35
2019-05-19T04:40:05.673Z,17.48
2019-05-19T04:42:33.084Z,17.58
2019-05-19T04:45:00.489Z,17.85
2019-05-19T04:47:27.970Z,17.65
2019-05-19T04:49:55.450Z,17.20
2019-05-19T04:52:22.935Z,17.10
2019-05-19T04:54:50.505Z,17.22
2019-05-19T04:57:17.900Z,17.66
2019-05-19T04:59:45.336Z,18.05
2019-05-19T05:02:12.800Z,18.12
2019-05-19T05:04:40.336Z,18.43
2019-05-19T05:07:07.857Z,18.98
2019-05-19T05:09:35.274Z,19.51
2019-05-19T05:12:02.702Z,19.85
2019-05-19T05:14:30.162Z,20.32
2019-05-19T05:17:00.155Z,20.59
2019-05-19T05:19:27.583Z,21.05
2019-05-19T05:21:55.031Z,20.50
2019-05-19T05:24:23.020Z,20.02
2019-05-19T05:26:50.516Z,19.67
2019-05-19T05:29:17.965Z,19.76
2019-05-19T05:31:45.419Z,20.15
2019-05-19T05:34:12.889Z,20.57
2019-05-19T05:36:40.392Z,20.25
2019-05-19T05:39:08.042Z,20.33
2019-05-19T05:41:35.841Z,20.41
2019-05-19T05:44:03.224Z,20.56
2019-05-19T05:46:30.659Z,20.63
2019-05-19T05:48:58.071Z,20.67
2019-05-19T05:51:25.437Z,21.23
2019-05-19T05:53:52.971Z,21.37
2019-05-19T05:56:20.423Z,21.32
2019-05-19T05:58:47.815Z,21.37
2019-05-19T06:01:15.283Z,21.56
2019-05-19T06:03:42.790Z,21.18
2019-05-19T06:06:10.235Z,21.12
2019-05-19T06:08:37.782Z,21.21
2019-05-19T06:11:05.168Z,21.47
2019-05-19T06:13:32.651Z,21.55
2019-05-19T06:16:00.209Z,21.07
2019-05-19T06:18:27.548Z,20.56
2019-05-19T06:20:54.996Z,20.98
2019-05-19T06:23:22.418Z,21.24
2019-05-19T06:25:49.796Z,21.45
2019-05-19T06:28:18.712Z,21.53
2019-05-19T06:30:46.137Z,21.92
2019-05-19T06:33:13.659Z,22.05
2019-05-19T06:35:41.147Z,22.00
2019-05-19T06:38:10.784Z,22.19
2019-05-19T06:40:38.556Z,22.26
2019-05-19T06:43:06.098Z,22.16
2019-05-19T06:45:33.569Z,22.14
2019-05-19T06:48:01.085Z,22.57
2019-05-19T06:50:28.574Z,22.90
2019-05-19T06:53:11.197Z,23.24
2019-05-19T06:55:25.535Z,23.90
2019-05-19T06:57:53.109Z,25.01
2019-05-19T07:00:21.436Z,25.01
2019-05-19T07:02:49.933Z,24.82
2019-05-19T07:05:17.459Z,25.35
2019-05-19T07:07:45.878Z,25.64
2019-05-19T07:10:13.498Z,26.12
2019-05-19T07:12:40.953Z,25.76
2019-05-19T07:15:09.477Z,26.74
2019-05-19T07:17:36.957Z,27.18
2019-05-19T07:20:04.601Z,27.22
2019-05-19T07:22:32.160Z,27.40
2019-05-19T07:24:59.702Z,27.16
2019-05-19T07:27:27.150Z,27.03
2019-05-19T07:29:54.580Z,26.92
2019-05-19T07:32:22.044Z,26.39
2019-05-19T07:34:49.480Z,27.04
2019-05-19T07:37:16.868Z,26.95
2019-05-19T07:39:44.336Z,27.35
2019-05-19T07:42:12.044Z,27.03
2019-05-19T07:44:39.488Z,26.79
2019-05-19T07:47:07.066Z,26.88
2019-05-19T07:49:34.572Z,26.63
2019-05-19T07:52:02.104Z,26.40
2019-05-19T07:54:29.599Z,26.50
2019-05-19T07:56:57.012Z,25.83
2019-05-19T07:59:24.468Z,25.83
2019-05-19T08:01:51.895Z,25.72
2019-05-19T08:04:19.878Z,25.39
2019-05-19T08:06:47.385Z,25.20
2019-05-19T08:09:14.857Z,25.38
2019-05-19T08:11:42.425Z,25.67
2019-05-19T08:14:09.841Z,25.91
2019-05-19T08:16:37.286Z,25.85
2019-05-19T08:19:04.717Z,25.68
2019-05-19T08:21:32.153Z,25.48
2019-05-19T08:24:01.072Z,25.59
2019-05-19T08:26:28.789Z,25.49
2019-05-19T08:28:56.209Z,25.90
2019-05-19T08:31:23.576Z,25.90
2019-05-19T08:33:51.142Z,25.98
2019-05-19T08:36:18.659Z,26.04
2019-05-19T08:38:46.070Z,26.06
2019-05-19T08:41:13.504Z,26.06
2019-05-19T08:43:41.094Z,25.94
2019-05-19T08:46:08.515Z,25.62
2019-05-19T08:48:35.978Z,25.62
2019-05-19T08:51:03.593Z,25.60
2019-05-19T08:53:30.994Z,25.57
2019-05-19T08:55:58.414Z,25.47
2019-05-19T08:58:25.918Z,25.27
2019-05-19T09:00:53.404Z,25.72
2019-05-19T09:03:20.824Z,25.82
2019-05-19T09:05:48.275Z,26.29
2019-05-19T09:08:15.675Z,26.47
2019-05-19T09:10:43.182Z,26.47
2019-05-19T09:13:10.717Z,26.90
2019-05-19T09:15:38.199Z,26.86
2019-05-19T09:18:05.669Z,27.18
2019-05-19T09:20:33.265Z,27.00
2019-05-19T09:23:00.630Z,26.67
2019-05-19T09:25:28.148Z,26.56
2019-05-19T09:27:55.589Z,26.67
2019-05-19T09:30:23.261Z,26.92
2019-05-19T09:32:50.686Z,26.79
2019-05-19T09:35:18.321Z,27.01
2019-05-19T09:37:45.756Z,27.13
2019-05-19T09:40:13.620Z,27.05
2019-05-19T09:42:40.993Z,27.01
2019-05-19T09:45:09.105Z,26.44
2019-05-19T09:47:36.700Z,25.99
2019-05-19T09:50:05.222Z,25.93
2019-05-19T09:52:32.691Z,26.07
2019-05-19T09:55:00.153Z,26.18
2019-05-19T09:57:27.575Z,26.18
2019-05-19T09:59:55.027Z,26.56
2019-05-19T10:02:22.405Z,26.56
2019-05-19T10:04:49.877Z,26.75
2019-05-19T10:07:17.339Z,27.21
2019-05-19T10:09:57.391Z,27.39
2019-05-19T10:12:24.866Z,27.55
2019-05-19T10:14:52.269Z,27.67
2019-05-19T10:17:20.309Z,27.43
2019-05-19T10:19:47.751Z,27.29
2019-05-19T10:22:15.142Z,27.22
2019-05-19T10:24:57.817Z,27.25
2019-05-19T10:27:11.925Z,27.22
2019-05-19T10:29:39.307Z,27.33
2019-05-19T10:32:06.744Z,27.44
2019-05-19T10:34:34.192Z,27.22
2019-05-19T10:37:02.128Z,27.36
2019-05-19T10:39:29.555Z,27.35
2019-05-19T10:41:57.069Z,27.18
2019-05-19T10:44:24.551Z,27.19
2019-05-19T10:46:51.993Z,27.30
2019-05-19T10:49:19.438Z,27.11
2019-05-19T10:51:47.004Z,27.00
2019-05-19T10:54:14.430Z,27.26
2019-05-19T10:56:41.887Z,27.65
2019-05-19T10:59:09.366Z,27.87
2019-05-19T11:01:36.719Z,27.85
2019-05-19T11:04:04.246Z,27.87
2019-05-19T11:06:31.727Z,27.65
2019-05-19T11:08:59.158Z,27.56
2019-05-19T11:11:26.707Z,27.44
2019-05-19T11:13:54.130Z,27.38
2019-05-19T11:16:21.490Z,27.48
2019-05-19T11:18:49.043Z,27.14
2019-05-19T11:21:16.484Z,27.38
2019-05-19T11:23:43.965Z,27.34
2019-05-19T11:26:11.353Z,27.39
2019-05-19T11:28:38.959Z,27.61
2019-05-19T11:31:06.566Z,27.95
2019-05-19T11:33:34.035Z,27.90
2019-05-19T11:36:01.502Z,27.78
2019-05-19T11:38:29.120Z,27.71
2019-05-19T11:40:56.585Z,27.76
2019-05-19T11:43:24.006Z,27.82
2019-05-19T11:45:51.464Z,27.78
2019-05-19T11:48:19.002Z,27.91
2019-05-19T11:50:46.467Z,27.68
2019-05-19T11:53:13.875Z,27.41
2019-05-19T11:55:41.390Z,27.44
2019-05-19T11:58:08.863Z,27.65
2019-05-19T12:00:36.273Z,27.37
2019-05-19T12:03:03.730Z,27.60
2019-05-19T12:05:31.384Z,27.61
2019-05-19T12:07:58.840Z,27.77
2019-05-19T12:10:26.244Z,27.58
2019-05-19T12:12:53.769Z,27.43
2019-05-19T12:15:21.414Z,27.24
2019-05-19T12:17:48.821Z,27.11
2019-05-19T12:20:16.208Z,27.30
2019-05-19T12:22:43.717Z,26.92
2019-05-19T12:25:11.392Z,26.86
2019-05-19T12:27:38.766Z,26.87
2019-05-19T12:30:07.075Z,26.65
2019-05-19T12:32:34.809Z,26.57
2019-05-19T12:35:02.259Z,26.72
2019-05-19T12:37:30.240Z,26.84
2019-05-19T12:39:57.789Z,26.93
2019-05-19T12:42:25.254Z,26.70
2019-05-19T12:44:52.616Z,26.79
2019-05-19T12:47:20.073Z,26.51
2019-05-19T12:49:47.512Z,26.47
2019-05-19T12:52:14.991Z,26.60
2019-05-19T12:54:42.531Z,26.35
2019-05-19T12:57:10.156Z,26.48
2019-05-19T12:59:37.657Z,26.12
2019-05-19T13:02:05.225Z,26.12
2019-05-19T13:04:32.743Z,25.89
2019-05-19T13:07:00.187Z,25.96
2019-05-19T13:09:27.672Z,25.82
2019-05-19T13:11:55.094Z,26.00
2019-05-19T13:14:22.574Z,25.89
2019-05-19T13:16:49.956Z,26.14
2019-05-19T13:19:17.501Z,25.81
2019-05-19T13:21:44.994Z,25.81
2019-05-19T13:24:12.561Z,25.98
2019-05-19T13:26:55.620Z,25.90
2019-05-19T13:29:10.228Z,26.03
2019-05-19T13:31:37.708Z,26.02
2019-05-19T13:34:05.285Z,26.03
2019-05-19T13:36:33.371Z,25.87
2019-05-19T13:39:00.933Z,25.88
2019-05-19T13:41:28.385Z,25.79
2019-05-19T13:43:55.823Z,25.79
2019-05-19T13:46:23.288Z,25.80
2019-05-19T13:48:50.809Z,26.18
2019-05-19T13:51:18.205Z,26.27
2019-05-19T13:53:45.680Z,26.42
2019-05-19T13:56:13.101Z,26.56
2019-05-19T13:58:40.541Z,26.53
2019-05-19T14:01:08.016Z,26.53
2019-05-19T14:03:35.477Z,26.66
2019-05-19T14:06:03.001Z,26.41
2019-05-19T14:08:30.453Z,26.59
2019-05-19T14:10:57.940Z,26.89
2019-05-19T14:13:25.466Z,27.35
2019-05-19T14:15:52.879Z,27.65
2019-05-19T14:18:20.276Z,27.66
2019-05-19T14:20:47.735Z,27.60
2019-05-19T14:23:15.183Z,27.61
2019-05-19T14:25:42.648Z,27.39
2019-05-19T14:28:10.104Z,27.56
2019-05-19T14:30:37.527Z,27.55
2019-05-19T14:33:05.158Z,27.49
2019-05-19T14:35:32.628Z,27.52
2019-05-19T14:38:00.530Z,27.74
2019-05-19T14:40:28.073Z,27.85
2019-05-19T14:42:59.199Z,27.65
2019-05-19T14:45:26.628Z,27.66
2019-05-19T14:47:54.091Z,27.71
2019-05-19T14:50:21.641Z,27.61
2019-05-19T14:52:49.027Z,27.74
2019-05-19T14:55:16.689Z,27.62
2019-05-19T14:57:45.568Z,27.63
2019-05-19T15:00:13.988Z,27.67
2019-05-19T15:02:41.471Z,27.89
2019-05-19T15:05:09.742Z,28.08
2019-05-19T15:07:37.329Z,28.33
2019-05-19T15:10:04.922Z,28.48
2019-05-19T15:12:32.424Z,28.22
2019-05-19T15:14:59.856Z,28.26
2019-05-19T15:17:27.281Z,28.05
2019-05-19T15:19:54.636Z,27.76
2019-05-19T15:22:22.064Z,27.84
2019-05-19T15:24:49.521Z,27.65
2019-05-19T15:27:16.917Z,27.69
2019-05-19T15:29:44.394Z,27.47
2019-05-19T15:32:11.840Z,27.34
2019-05-19T15:34:39.416Z,27.31
2019-05-19T15:37:07.342Z,27.13
2019-05-19T15:39:34.903Z,26.99
2019-05-19T15:42:02.464Z,27.09
2019-05-19T15:44:29.934Z,27.03
2019-05-19T15:46:57.336Z,27.13
2019-05-19T15:49:24.832Z,27.15
2019-05-19T15:52:01.907Z,27.46
2019-05-19T15:54:21.670Z,27.46
2019-05-19T15:56:49.093Z,27.33
2019-05-19T15:59:16.552Z,27.37
2019-05-19T16:01:44.006Z,27.45
2019-05-19T16:04:11.399Z,27.41
2019-05-19T16:06:39.232Z,27.30
2019-05-19T16:09:07.179Z,27.34
2019-05-19T16:11:34.660Z,27.14
2019-05-19T16:14:02.274Z,27.22
2019-05-19T16:16:29.650Z,27.34
2019-05-19T16:18:57.113Z,27.39
2019-05-19T16:21:24.541Z,27.49
2019-05-19T16:23:52.030Z,27.55
2019-05-19T16:26:19.404Z,27.40
2019-05-19T16:28:46.852Z,27.30
2019-05-19T16:31:14.310Z,27.28
2019-05-19T16:33:41.704Z,27.20
2019-05-19T16:36:09.277Z,27.09
2019-05-19T16:38:37.355Z,26.96
2019-05-19T16:41:04.909Z,27.05
2019-05-19T16:43:32.502Z,26.86
2019-05-19T16:45:59.977Z,26.43
2019-05-19T16:48:27.518Z,26.40
2019-05-19T16:50:55.057Z,26.20
2019-05-19T16:53:22.821Z,26.31
2019-05-19T16:55:50.310Z,26.31
2019-05-19T16:58:21.143Z,26.51
2019-05-19T17:00:47.125Z,26.47
2019-05-19T17:03:14.580Z,26.50
2019-05-19T17:05:42.063Z,26.27
2019-05-19T17:08:09.486Z,26.21
2019-05-19T17:10:37.125Z,26.10
2019-05-19T17:13:04.535Z,25.94
2019-05-19T17:15:31.944Z,25.99
2019-05-19T17:17:59.465Z,25.93
2019-05-19T17:20:30.578Z,25.93
2019-05-19T17:22:56.370Z,25.91
2019-05-19T17:25:23.816Z,25.97
2019-05-19T17:27:51.428Z,26.03
2019-05-19T17:30:20.849Z,26.02
2019-05-19T17:32:51.380Z,25.85
2019-05-19T17:35:20.271Z,25.86
2019-05-19T17:38:29.481Z,25.68
2019-05-19T17:45:16.319Z,25.64
2019-05-19T17:47:44.057Z,25.59
2019-05-19T17:50:13.015Z,25.28
2019-05-19T17:56:07.979Z,25.33
2019-05-19T17:58:35.832Z,25.13
2019-05-19T18:01:05.630Z,25.08
2019-05-19T18:03:33.681Z,24.87
2019-05-19T18:06:01.065Z,24.52
2019-05-19T18:08:28.555Z,24.41
2019-05-19T18:14:55.095Z,24.69
2019-05-19T18:17:22.677Z,24.69
2019-05-19T18:19:50.251Z,24.60
2019-05-19T18:22:17.771Z,24.53
2019-05-19T18:24:45.268Z,24.36
2019-05-19T18:27:12.917Z,24.44
2019-05-19T18:29:40.291Z,24.37
2019-05-19T18:32:07.803Z,24.18
2019-05-19T18:34:35.310Z,23.97
2019-05-19T18:37:03.447Z,23.82
2019-05-19T18:39:31.022Z,23.78
2019-05-19T18:41:58.530Z,23.69
2019-05-19T18:44:25.943Z,23.49
2019-05-19T18:46:53.412Z,23.42
2019-05-19T18:49:20.867Z,23.36
2019-05-19T18:51:48.444Z,23.46
2019-05-19T18:54:15.831Z,23.32
2019-05-19T18:56:43.531Z,23.40
2019-05-19T18:59:11.088Z,23.27
2019-05-19T19:01:38.675Z,23.16
2019-05-19T19:04:06.428Z,23.22
2019-05-19T19:06:34.354Z,23.06
2019-05-19T19:09:02.273Z,22.94
2019-05-19T19:11:30.002Z,22.71
2019-05-19T19:13:57.399Z,22.62
2019-05-19T19:16:24.896Z,22.72
2019-05-19T19:18:52.415Z,22.64
2019-05-19T19:21:19.873Z,22.42
2019-05-19T19:23:47.407Z,22.44
2019-05-19T19:26:14.805Z,22.58
2019-05-19T19:28:42.337Z,22.21
2019-05-19T19:31:09.815Z,21.97
2019-05-19T19:33:37.314Z,21.87
2019-05-19T19:36:05.280Z,22.05
2019-05-19T19:38:32.864Z,22.01
2019-05-19T19:41:00.488Z,21.93
2019-05-19T19:43:27.929Z,21.98
2019-05-19T19:45:55.375Z,22.04
2019-05-19T19:48:22.876Z,21.61
2019-05-19T19:50:50.374Z,21.75
2019-05-19T19:53:17.806Z,21.59
2019-05-19T19:55:45.261Z,21.39
2019-05-19T19:58:12.711Z,21.14
2019-05-19T20:00:42.243Z,20.98
2019-05-19T20:03:09.761Z,20.89
2019-05-19T20:05:37.441Z,20.89
2019-05-19T20:08:05.081Z,20.80
2019-05-19T20:10:32.520Z,20.82
2019-05-19T20:13:00.038Z,20.86
2019-05-19T20:15:27.434Z,20.42
2019-05-19T20:17:54.917Z,20.36
2019-05-19T20:20:24.143Z,20.36
2019-05-19T20:22:52.707Z,20.41
2019-05-19T20:25:20.282Z,20.38
2019-05-19T20:27:47.756Z,20.32
2019-05-19T20:30:15.309Z,20.28
2019-05-19T20:32:42.810Z,20.20
2019-05-19T20:35:10.904Z,20.29
2019-05-19T20:37:38.412Z,20.22
2019-05-19T20:40:06.119Z,20.11
2019-05-19T20:42:33.504Z,20.08
2019-05-19T20:45:01.103Z,20.06
2019-05-19T20:47:28.567Z,19.96
2019-05-19T20:49:56.007Z,20.03
2019-05-19T20:52:23.450Z,20.18
2019-05-19T20:54:50.932Z,20.02
2019-05-19T20:57:18.369Z,19.94
2019-05-19T20:59:45.789Z,19.81
2019-05-19T21:02:13.233Z,19.79
2019-05-19T21:04:40.679Z,19.80
2019-05-19T21:07:08.181Z,19.74
2019-05-19T21:09:35.577Z,19.95
2019-05-19T21:12:03.099Z,20.03
2019-05-19T21:14:30.606Z,20.01
2019-05-19T21:16:58.917Z,20.06
2019-05-19T21:19:28.595Z,20.14
2019-05-19T21:21:56.150Z,20.18
2019-05-19T21:24:24.767Z,20.05
2019-05-19T21:26:53.074Z,20.05
2019-05-19T21:29:20.683Z,19.84
2019-05-19T21:31:48.114Z,19.71
2019-05-19T21:34:15.831Z,19.72
2019-05-19T21:36:43.291Z,19.64
2019-05-19T21:39:10.832Z,19.47
2019-05-19T21:41:38.339Z,19.72
2019-05-19T21:44:05.840Z,19.71
2019-05-19T21:46:33.300Z,19.78
2019-05-19T21:49:00.684Z,19.81
2019-05-19T21:51:28.167Z,19.89
2019-05-19T21:53:55.663Z,19.95
2019-05-19T21:56:23.083Z,19.86
2019-05-19T21:58:50.518Z,19.69
2019-05-19T22:01:23.307Z,19.59
2019-05-19T22:03:47.548Z,19.49
2019-05-19T22:06:15.713Z,19.69
2019-05-19T22:08:43.183Z,19.61
2019-05-19T22:11:10.668Z,19.83
2019-05-19T22:13:38.146Z,19.79
2019-05-19T22:16:13.124Z,19.75
2019-05-19T22:18:34.983Z,19.91
2019-05-19T22:21:02.695Z,19.89
2019-05-19T22:23:30.262Z,19.62
2019-05-19T22:25:57.761Z,19.57
2019-05-19T22:28:25.362Z,19.74
2019-05-19T22:30:52.836Z,19.79
2019-05-19T22:33:20.363Z,19.80
2019-05-19T22:35:47.767Z,19.91
2019-05-19T22:38:15.229Z,19.85
2019-05-19T22:40:42.838Z,19.88
2019-05-19T22:43:10.261Z,19.77
2019-05-19T22:45:37.776Z,19.89
2019-05-19T22:48:05.243Z,19.77
2019-05-19T22:50:32.674Z,19.78
2019-05-19T22:53:00.128Z,19.71
2019-05-19T22:55:27.618Z,19.88
2019-05-19T22:57:55.037Z,19.72
2019-05-19T23:00:22.833Z,19.71
2019-05-19T23:02:50.295Z,19.76
2019-05-19T23:05:18.545Z,19.65
2019-05-19T23:07:45.980Z,19.65
2019-05-19T23:10:14.222Z,19.64
2019-05-19T23:12:41.631Z,19.52
2019-05-19T23:15:09.695Z,19.20
2019-05-19T23:17:37.168Z,19.02
2019-05-19T23:20:05.222Z,18.80
2019-05-19T23:22:32.768Z,18.99
2019-05-19T23:25:00.195Z,19.00
2019-05-19T23:27:27.634Z,18.68
2019-05-19T23:29:55.190Z,18.70
2019-05-19T23:32:22.753Z,18.80
2019-05-19T23:34:50.184Z,18.87
2019-05-19T23:37:17.716Z,18.80
2019-05-19T23:39:45.181Z,18.72
2019-05-19T23:42:12.624Z,18.84
2019-05-19T23:44:40.219Z,18.87
2019-05-19T23:47:07.718Z,18.82
2019-05-19T23:49:35.202Z,18.86
2019-05-19T23:52:02.721Z,18.72
2019-05-19T23:54:30.227Z,18.69
2019-05-19T23:56:57.711Z,18.51
2019-05-19T23:59:25.091Z,18.25
